Time;durP1;ratioP1;P1;durP2;ratioP2;P2;SDS_P1;SDS_P2;PMS_P1;PMS_P2;Temp;Humidity;BMP_temperature;BMP_pressure;BME280_temperature;BME280_humidity;BME280_pressure;Samples;Min_cycle;Max_cycle;Signal;HPM_P1;HPM_P2
2022/08/08 00:02:43;;;;;;;2.07;1.67;;;16.30;99.90;;;;;;5067710;28;20420;-82
2022/08/08 00:05:38;;;;;;;2.33;2.13;;;16.30;99.90;;;;;;5065141;28;20466;-82
2022/08/08 00:08:38;;;;;;;1.83;1.73;;;16.30;99.90;;;;;;5065692;28;20674;-82
2022/08/08 00:11:16;;;;;;;1.57;1.47;;;16.30;99.90;;;;;;5085688;28;20442;-81
2022/08/08 00:14:27;;;;;;;1.70;1.60;;;16.20;99.90;;;;;;5068650;28;20453;-83
2022/08/08 00:17:22;;;;;;;2.10;1.90;;;16.20;99.90;;;;;;5056781;28;20477;-82
2022/08/08 00:19:57;;;;;;;2.63;1.50;;;16.10;99.90;;;;;;5058533;28;20416;-82
2022/08/08 00:22:28;;;;;;;1.80;1.70;;;16.00;99.90;;;;;;5062385;28;20443;-82
2022/08/08 00:25:03;;;;;;;2.23;2.03;;;15.90;99.90;;;;;;5075614;28;20455;-82
2022/08/08 00:27:36;;;;;;;2.10;1.97;;;16.00;99.90;;;;;;5063006;28;20450;-82
2022/08/08 00:30:10;;;;;;;4.80;2.53;;;15.90;99.90;;;;;;5087502;28;20681;-82
2022/08/08 00:32:49;;;;;;;6.23;2.07;;;15.90;99.90;;;;;;5071353;28;20481;-82
2022/08/08 00:35:40;;;;;;;1.60;1.50;;;15.90;99.90;;;;;;5065397;28;20549;-82
2022/08/08 00:38:34;;;;;;;2.63;1.77;;;15.90;99.90;;;;;;5069935;28;20421;-82
2022/08/08 00:41:31;;;;;;;2.00;1.80;;;15.80;99.90;;;;;;5064121;28;20435;-82
2022/08/08 00:44:46;;;;;;;1.83;1.73;;;15.70;99.90;;;;;;5065821;28;20439;-82
2022/08/08 00:47:47;;;;;;;1.97;1.87;;;15.80;99.90;;;;;;5052653;28;20505;-82
2022/08/08 00:50:35;;;;;;;2.57;2.17;;;15.80;99.90;;;;;;5064826;28;20462;-81
2022/08/08 00:53:44;;;;;;;2.80;1.77;;;15.60;99.90;;;;;;5068739;28;20448;-82
2022/08/08 00:57:03;;;;;;;3.07;1.70;;;15.60;99.90;;;;;;5066797;28;20551;-82
2022/08/08 00:59:52;;;;;;;1.57;1.47;;;15.60;99.90;;;;;;5070660;28;20436;-82
2022/08/08 01:02:39;;;;;;;2.23;2.03;;;15.80;99.90;;;;;;5066299;28;20444;-81
2022/08/08 01:05:26;;;;;;;1.83;1.73;;;15.90;99.90;;;;;;5056159;28;20444;-81
2022/08/08 01:08:32;;;;;;;2.10;1.93;;;15.90;99.90;;;;;;5074295;28;20517;-80
2022/08/08 01:11:12;;;;;;;1.75;1.65;;;16.00;99.90;;;;;;5069641;28;20510;-80
2022/08/08 01:14:09;;;;;;;2.10;1.73;;;16.20;99.90;;;;;;5074855;28;20332;-80
2022/08/08 01:17:16;;;;;;;3.43;2.10;;;16.10;99.90;;;;;;5068858;28;20475;-81
2022/08/08 01:20:21;;;;;;;2.40;2.20;;;16.00;99.90;;;;;;5063755;28;20443;-82
2022/08/08 01:23:04;;;;;;;2.37;2.17;;;16.00;99.90;;;;;;5057915;28;20429;-82
2022/08/08 01:26:06;;;;;;;2.30;2.00;;;15.90;99.90;;;;;;5058997;28;20456;-81
2022/08/08 01:29:00;;;;;;;3.63;1.90;;;15.90;99.90;;;;;;5055804;28;20519;-82
2022/08/08 01:31:39;;;;;;;2.93;2.00;;;15.80;99.90;;;;;;5068391;28;20459;-82
2022/08/08 01:34:54;;;;;;;2.00;1.90;;;15.70;99.90;;;;;;5064054;28;20437;-82
2022/08/08 01:37:53;;;;;;;2.80;2.60;;;15.60;99.90;;;;;;5053068;28;20249;-83
2022/08/08 01:40:59;;;;;;;2.08;1.88;;;15.70;99.90;;;;;;5060854;28;20243;-83
2022/08/08 01:43:45;;;;;;;2.33;2.13;;;15.50;99.90;;;;;;5058059;28;20727;-83
2022/08/08 01:46:44;;;;;;;2.60;2.22;;;15.40;99.90;;;;;;5063078;28;20232;-83
2022/08/08 01:49:45;;;;;;;2.85;2.55;;;15.30;99.90;;;;;;5059769;28;20205;-82
2022/08/08 01:52:57;;;;;;;4.53;3.38;;;15.30;99.90;;;;;;5063803;28;20278;-82
2022/08/08 01:56:06;;;;;;;2.45;2.25;;;15.20;99.90;;;;;;5056541;28;20234;-82
2022/08/08 01:59:14;;;;;;;2.53;2.13;;;15.10;99.90;;;;;;5049536;28;20219;-81
2022/08/08 02:02:16;;;;;;;2.28;2.03;;;15.10;99.90;;;;;;5071079;28;20647;-81
2022/08/08 02:05:38;;;;;;;2.40;2.03;;;15.10;99.90;;;;;;5059899;28;20200;-81
2022/08/08 02:08:40;;;;;;;3.10;2.75;;;14.90;99.90;;;;;;5059912;28;20392;-82
2022/08/08 02:11:33;;;;;;;2.50;2.17;;;14.70;99.90;;;;;;5060887;28;20226;-82
2022/08/08 02:14:29;;;;;;;2.20;2.08;;;14.70;99.90;;;;;;5063538;28;20218;-81
2022/08/08 02:17:11;;;;;;;2.33;2.22;;;14.70;99.90;;;;;;5065657;28;20298;-82
2022/08/08 02:20:04;;;;;;;3.67;3.22;;;14.70;99.90;;;;;;5052509;28;20208;-81
2022/08/08 02:23:32;;;;;;;1.90;1.80;;;14.50;99.90;;;;;;5052140;28;20217;-82
2022/08/08 02:26:29;;;;;;;3.50;2.45;;;14.40;99.90;;;;;;5035142;28;20263;-81
2022/08/08 02:29:33;;;;;;;3.20;2.65;;;14.30;99.90;;;;;;5029729;28;20214;-81
2022/08/08 02:32:37;;;;;;;4.20;2.70;;;14.30;99.90;;;;;;5059972;28;20211;-82
2022/08/08 02:35:36;;;;;;;4.13;2.65;;;14.40;99.90;;;;;;5058219;28;20211;-80
2022/08/08 02:39:17;;;;;;;2.33;2.13;;;14.30;99.90;;;;;;5059374;28;20425;-82
2022/08/08 02:42:37;;;;;;;2.83;2.63;;;13.90;99.90;;;;;;5036147;28;20514;-82
2022/08/08 02:45:30;;;;;;;3.03;2.72;;;13.90;99.90;;;;;;5037609;28;20333;-82
2022/08/08 02:48:42;;;;;;;3.65;2.80;;;14.00;99.90;;;;;;5051210;28;20258;-82
2022/08/08 02:51:55;;;;;;;3.15;2.65;;;14.00;99.90;;;;;;5052154;28;20208;-82
2022/08/08 02:54:39;;;;;;;5.47;2.60;;;14.00;99.90;;;;;;5046313;28;20197;-82
2022/08/08 02:57:19;;;;;;;2.90;2.70;;;13.80;99.90;;;;;;5056742;28;20231;-82
2022/08/08 03:00:14;;;;;;;2.33;2.13;;;13.70;99.90;;;;;;5052124;28;20292;-81
2022/08/08 03:02:57;;;;;;;3.67;2.42;;;13.70;99.90;;;;;;5057042;28;20207;-83
2022/08/08 03:06:05;;;;;;;2.60;2.40;;;13.80;99.90;;;;;;5069254;28;20448;-83
2022/08/08 03:09:03;;;;;;;3.80;2.30;;;13.70;99.90;;;;;;5063560;28;20254;-82
2022/08/08 03:11:59;;;;;;;2.92;2.72;;;13.60;99.90;;;;;;5067754;28;20231;-82
2022/08/08 03:14:42;;;;;;;2.85;2.65;;;13.70;99.90;;;;;;5067668;28;20510;-82
2022/08/08 03:17:34;;;;;;;4.03;3.30;;;13.60;99.90;;;;;;5070316;28;20210;-83
2022/08/08 03:20:06;;;;;;;3.55;3.05;;;13.60;99.90;;;;;;5055141;28;20212;-83
2022/08/08 03:22:47;;;;;;;5.10;3.22;;;13.50;99.90;;;;;;5070845;28;20230;-83
2022/08/08 03:25:28;;;;;;;3.60;3.25;;;13.60;99.90;;;;;;5071534;28;20241;-83
2022/08/08 03:28:27;;;;;;;5.38;3.45;;;13.50;99.90;;;;;;5094733;28;20239;-83
2022/08/08 03:30:59;;;;;;;7.63;3.05;;;13.60;99.90;;;;;;5063427;28;20257;-82
2022/08/08 03:33:46;;;;;;;3.20;3.00;;;13.60;99.90;;;;;;5064137;28;20452;-82
2022/08/08 03:36:26;;;;;;;3.88;3.08;;;13.60;99.90;;;;;;5052594;28;20231;-83
2022/08/08 03:38:56;;;;;;;12.98;3.72;;;13.70;99.90;;;;;;5073236;28;20281;-82
2022/08/08 03:41:42;;;;;;;4.43;3.65;;;13.70;99.90;;;;;;5066819;28;20207;-82
2022/08/08 03:44:33;;;;;;;4.55;3.20;;;13.70;99.90;;;;;;5060254;28;20468;-83
2022/08/08 03:47:11;;;;;;;2.67;2.47;;;13.70;99.90;;;;;;5078833;28;20466;-83
2022/08/08 03:49:47;;;;;;;3.50;3.20;;;13.80;99.90;;;;;;5064486;28;20213;-84
2022/08/08 03:52:29;;;;;;;3.38;2.70;;;13.60;99.90;;;;;;5065010;28;20262;-83
2022/08/08 03:54:57;;;;;;;3.38;2.78;;;13.50;99.90;;;;;;5057001;28;20537;-83
2022/08/08 03:57:51;;;;;;;7.13;3.72;;;13.50;99.90;;;;;;5065128;28;20226;-83
2022/08/08 04:00:38;;;;;;;3.10;2.80;;;13.60;99.90;;;;;;5082875;28;20197;-82
2022/08/08 04:03:34;;;;;;;4.10;3.00;;;13.70;99.90;;;;;;5059428;28;20206;-83
2022/08/08 04:06:20;;;;;;;8.57;3.28;;;13.80;99.90;;;;;;5061300;28;20728;-82
2022/08/08 04:08:48;;;;;;;6.70;2.95;;;13.90;99.90;;;;;;5058675;28;20207;-83
2022/08/08 04:11:16;;;;;;;3.70;3.40;;;14.00;99.90;;;;;;5062065;28;20233;-83
2022/08/08 04:13:49;;;;;;;3.10;2.90;;;13.90;99.90;;;;;;5066795;28;20216;-83
2022/08/08 04:16:36;;;;;;;4.40;3.40;;;14.00;99.90;;;;;;5071561;28;20231;-82
2022/08/08 04:19:39;;;;;;;3.40;3.10;;;14.00;99.90;;;;;;5067137;28;20196;-83
2022/08/08 04:22:34;;;;;;;3.63;3.33;;;14.10;99.90;;;;;;5937094;23;20316;-82
2022/08/08 04:25:05;;;;;;;3.05;2.85;;;14.10;99.90;;;;;;5028970;28;20205;-83
2022/08/08 04:27:41;;;;;;;4.30;3.90;;;14.30;99.90;;;;;;5025921;28;20240;-82
2022/08/08 04:30:28;;;;;;;7.25;3.70;;;14.40;99.90;;;;;;5037400;28;20280;-83
2022/08/08 04:33:02;;;;;;;4.20;3.13;;;14.20;99.90;;;;;;5010435;28;20236;-82
2022/08/08 04:35:33;;;;;;;4.00;2.65;;;14.40;99.90;;;;;;5016140;28;20210;-82
2022/08/08 04:38:05;;;;;;;3.05;2.80;;;14.60;99.90;;;;;;5005606;28;20210;-82
2022/08/08 04:40:35;;;;;;;4.10;3.67;;;14.80;99.90;;;;;;5025078;28;20212;-82
2022/08/08 04:43:02;;;;;;;5.10;3.55;;;14.90;99.90;;;;;;5026958;28;20344;-83
2022/08/08 04:45:34;;;;;;;3.45;2.97;;;15.10;99.90;;;;;;5022052;28;20220;-83
2022/08/08 04:48:04;;;;;;;3.58;3.22;;;15.30;99.90;;;;;;5023049;28;20210;-83
2022/08/08 04:50:33;;;;;;;5.28;3.38;;;15.40;99.90;;;;;;5021841;28;20220;-83
2022/08/08 04:53:07;;;;;;;5.53;3.88;;;15.50;99.90;;;;;;5020944;28;20213;-82
2022/08/08 04:55:56;;;;;;;3.80;3.50;;;15.40;99.90;;;;;;5022872;28;20489;-82
2022/08/08 04:58:22;;;;;;;9.40;3.53;;;15.50;99.90;;;;;;5033490;28;20274;-83
2022/08/08 05:00:50;;;;;;;3.05;2.75;;;15.50;99.90;;;;;;5028820;28;20412;-83
2022/08/08 05:03:17;;;;;;;3.92;3.63;;;15.70;99.90;;;;;;5021936;28;20275;-83
2022/08/08 05:06:06;;;;;;;6.80;3.30;;;15.90;99.90;;;;;;5019784;28;20421;-82
2022/08/08 05:08:44;;;;;;;5.67;4.07;;;15.90;99.90;;;;;;5019722;28;20445;-83
2022/08/08 05:11:18;;;;;;;9.73;7.30;;;16.20;99.90;;;;;;5019315;28;20441;-83
2022/08/08 05:13:49;;;;;;;3.73;2.97;;;16.10;99.90;;;;;;5012333;28;20456;-81
2022/08/08 05:16:27;;;;;;;3.50;3.20;;;16.20;99.90;;;;;;5019310;28;21153;-83
2022/08/08 05:19:15;;;;;;;4.07;3.67;;;16.50;99.90;;;;;;5019507;28;20442;-84
2022/08/08 05:22:01;;;;;;;7.07;4.07;;;16.40;99.90;;;;;;5013479;28;20772;-84
2022/08/08 05:24:29;;;;;;;4.40;4.00;;;16.60;99.90;;;;;;5020493;28;20478;-84
2022/08/08 05:26:56;;;;;;;7.80;4.23;;;16.80;99.90;;;;;;5025254;28;20540;-84
2022/08/08 05:29:25;;;;;;;6.00;5.00;;;16.90;99.90;;;;;;5022132;28;20478;-82
2022/08/08 05:31:55;;;;;;;5.30;3.17;;;17.10;99.90;;;;;;5017072;28;20438;-83
2022/08/08 05:34:35;;;;;;;4.63;3.70;;;17.20;99.90;;;;;;5018846;28;20547;-85
2022/08/08 05:37:07;;;;;;;4.07;3.77;;;17.40;99.90;;;;;;5004170;28;20485;-84
2022/08/08 05:39:49;;;;;;;4.93;2.80;;;17.20;99.90;;;;;;4998208;28;20448;-84
2022/08/08 05:42:16;;;;;;;4.40;3.90;;;17.30;99.90;;;;;;5024983;28;20423;-82
2022/08/08 05:44:47;;;;;;;2.53;2.33;;;17.60;99.90;;;;;;5032434;28;20450;-83
2022/08/08 05:47:19;;;;;;;2.27;1.80;;;17.70;99.90;;;;;;5018872;28;20466;-83
2022/08/08 05:49:48;;;;;;;1.80;1.70;;;17.80;99.90;;;;;;5000072;28;20451;-82
2022/08/08 05:52:22;;;;;;;2.70;1.90;;;17.80;99.90;;;;;;5022409;28;20445;-81
2022/08/08 05:55:08;;;;;;;2.13;1.93;;;17.80;99.90;;;;;;5016968;28;20672;-84
2022/08/08 05:57:37;;;;;;;2.27;2.07;;;17.80;99.90;;;;;;5016320;28;20537;-84
2022/08/08 06:00:31;;;;;;;2.37;2.17;;;18.20;99.90;;;;;;5003079;28;20453;-85
2022/08/08 06:03:10;;;;;;;3.17;1.50;;;18.20;99.90;;;;;;5002642;28;20455;-84
2022/08/08 06:05:54;;;;;;;2.30;2.10;;;18.30;99.90;;;;;;5017053;28;20432;-84
2022/08/08 06:08:50;;;;;;;4.30;2.37;;;18.50;99.90;;;;;;5017289;28;20871;-84
2022/08/08 06:11:21;;;;;;;8.03;2.83;;;18.70;99.90;;;;;;4996829;28;20591;-84
2022/08/08 06:13:53;;;;;;;3.73;3.20;;;18.90;99.90;;;;;;5032265;28;20421;-83
2022/08/08 06:16:22;;;;;;;6.03;2.47;;;19.00;99.90;;;;;;5005344;28;20533;-85
2022/08/08 06:19:01;;;;;;;2.70;2.10;;;19.20;99.90;;;;;;5045924;28;20456;-82
2022/08/08 06:21:30;;;;;;;3.50;2.60;;;19.60;99.90;;;;;;5051655;28;20421;-82
2022/08/08 06:24:20;;;;;;;2.20;2.00;;;19.70;99.90;;;;;;5033192;28;20439;-80
2022/08/08 06:27:08;;;;;;;3.13;2.33;;;19.90;99.90;;;;;;5030834;28;20455;-83
2022/08/08 06:29:53;;;;;;;8.37;2.43;;;19.80;99.90;;;;;;5026425;28;20453;-83
2022/08/08 06:32:30;;;;;;;5.10;3.40;;;19.90;99.90;;;;;;5018297;28;20439;-84
2022/08/08 06:35:04;;;;;;;2.73;2.10;;;20.10;99.90;;;;;;5019239;28;20449;-82
2022/08/08 06:37:57;;;;;;;1.83;1.67;;;20.50;99.90;;;;;;5012494;28;20610;-80
2022/08/08 06:40:31;;;;;;;2.50;1.80;;;21.00;99.90;;;;;;5018661;28;20486;-83
2022/08/08 06:43:08;;;;;;;2.43;1.90;;;21.50;99.90;;;;;;5018692;28;20512;-82
2022/08/08 06:45:38;;;;;;;1.60;1.50;;;21.70;99.90;;;;;;5018135;28;20551;-83
2022/08/08 06:48:06;;;;;;;2.17;1.97;;;21.80;99.90;;;;;;5009893;28;20454;-85
2022/08/08 06:50:35;;;;;;;1.90;1.70;;;22.30;99.90;;;;;;5015373;28;20438;-83
2022/08/08 06:53:06;;;;;;;2.57;2.37;;;22.80;99.90;;;;;;4999709;28;20433;-82
2022/08/08 06:55:40;;;;;;;2.13;1.93;;;23.00;99.90;;;;;;5018252;28;20439;-84
2022/08/08 06:58:13;;;;;;;1.50;1.40;;;23.20;99.90;;;;;;5010117;28;20448;-86
2022/08/08 07:00:48;;;;;;;1.80;1.70;;;23.30;99.90;;;;;;5012518;28;20428;-83
2022/08/08 07:03:39;;;;;;;1.67;1.57;;;23.40;99.90;;;;;;5018808;28;20730;-83
2022/08/08 07:06:30;;;;;;;5.17;2.10;;;23.40;99.90;;;;;;5020318;28;20441;-83
2022/08/08 07:09:11;;;;;;;2.77;2.50;;;23.90;99.90;;;;;;5023209;28;20446;-82
2022/08/08 07:11:48;;;;;;;2.13;1.93;;;24.80;99.90;;;;;;5022706;28;20855;-83
2022/08/08 07:14:23;;;;;;;3.30;2.03;;;25.40;99.90;;;;;;5021305;28;20712;-81
2022/08/08 07:17:07;;;;;;;3.40;2.40;;;26.00;99.90;;;;;;5018496;28;20499;-84
2022/08/08 07:19:53;;;;;;;3.33;2.60;;;26.90;99.90;;;;;;5021935;28;20495;-82
2022/08/08 07:22:31;;;;;;;2.03;1.60;;;27.20;99.20;;;;;;5026613;28;20423;-83
2022/08/08 07:25:03;;;;;;;2.47;2.27;;;27.40;98.40;;;;;;5007775;28;20449;-85
2022/08/08 07:27:40;;;;;;;3.70;1.80;;;28.30;96.90;;;;;;5004656;28;20593;-86
2022/08/08 07:30:28;;;;;;;1.33;1.23;;;28.80;94.60;;;;;;5020809;28;21923;-83
2022/08/08 07:32:56;;;;;;;3.90;1.93;;;30.40;91.20;;;;;;5017828;28;20498;-81
2022/08/08 07:35:27;;;;;;;3.80;2.20;;;31.40;86.40;;;;;;5003674;28;20423;-83
2022/08/08 07:37:59;;;;;;;3.63;1.60;;;31.40;83.70;;;;;;5021876;28;20473;-84
2022/08/08 07:40:37;;;;;;;2.10;1.80;;;31.60;82.00;;;;;;5019296;28;20437;-83
2022/08/08 07:43:06;;;;;;;10.73;2.00;;;33.00;77.30;;;;;;5018287;28;20461;-84
2022/08/08 07:45:36;;;;;;;1.70;1.60;;;32.70;76.50;;;;;;5016351;28;20585;-82
2022/08/08 07:48:23;;;;;;;7.00;1.77;;;33.40;72.10;;;;;;5014418;28;20434;-82
2022/08/08 07:50:59;;;;;;;3.20;1.60;;;34.40;69.00;;;;;;5010627;28;21000;-82
2022/08/08 07:53:37;;;;;;;1.97;1.50;;;33.40;67.10;;;;;;4994339;28;20461;-83
2022/08/08 07:56:26;;;;;;;2.50;1.63;;;30.90;72.50;;;;;;5013996;28;20426;-82
2022/08/08 07:59:11;;;;;;;1.83;1.67;;;32.10;70.90;;;;;;5020579;28;20524;-80
2022/08/08 08:01:49;;;;;;;4.83;1.73;;;33.00;68.30;;;;;;5030793;28;21011;-84
2022/08/08 08:04:40;;;;;;;1.70;1.60;;;31.90;68.80;;;;;;5022234;28;20772;-84
2022/08/08 08:07:33;;;;;;;2.00;1.90;;;33.20;67.20;;;;;;5018492;28;20434;-83
2022/08/08 08:10:14;;;;;;;2.07;1.60;;;33.40;64.60;;;;;;4923131;29;20465;-84
2022/08/08 08:12:53;;;;;;;1.53;1.30;;;34.00;63.10;;;;;;4960722;29;20530;-81
2022/08/08 08:15:31;;;;;;;1.73;1.30;;;35.30;61.10;;;;;;4947913;29;20514;-81
2022/08/08 08:18:02;;;;;;;1.57;1.47;;;35.20;58.70;;;;;;4944859;29;20569;-83
2022/08/08 08:20:30;;;;;;;3.03;1.73;;;33.60;61.70;;;;;;4939130;29;20466;-83
2022/08/08 08:22:57;;;;;;;3.20;1.70;;;33.40;61.60;;;;;;4955572;29;20532;-83
2022/08/08 08:25:24;;;;;;;2.50;1.47;;;32.50;62.30;;;;;;4943803;29;20518;-86
2022/08/08 08:28:11;;;;;;;1.30;1.20;;;31.50;63.60;;;;;;4931032;29;20437;-84
2022/08/08 08:30:49;;;;;;;1.77;1.23;;;31.30;66.10;;;;;;4944409;29;21191;-82
2022/08/08 08:33:20;;;;;;;1.90;1.70;;;32.20;63.10;;;;;;4946475;29;20443;-82
2022/08/08 08:35:55;;;;;;;1.73;1.63;;;31.90;64.20;;;;;;4936595;29;20502;-84
2022/08/08 08:38:45;;;;;;;2.40;2.20;;;32.80;62.80;;;;;;4928256;29;20792;-83
2022/08/08 08:41:19;;;;;;;1.87;1.10;;;32.30;62.50;;;;;;4976720;28;20462;-82
2022/08/08 08:43:50;;;;;;;3.37;1.67;;;31.80;62.50;;;;;;5022618;28;20503;-81
2022/08/08 08:46:44;;;;;;;1.70;1.60;;;32.10;61.50;;;;;;5016339;28;20541;-85
2022/08/08 08:49:29;;;;;;;1.57;1.40;;;31.10;64.30;;;;;;5020715;28;20477;-84
2022/08/08 08:52:03;;;;;;;2.00;1.40;;;32.20;61.90;;;;;;4985373;28;20461;-82
2022/08/08 08:54:35;;;;;;;3.23;1.40;;;32.10;62.20;;;;;;5010265;28;20482;-82
2022/08/08 08:57:26;;;;;;;1.20;1.10;;;35.20;57.40;;;;;;5004456;28;20474;-81
2022/08/08 08:59:57;;;;;;;2.40;1.70;;;34.90;55.40;;;;;;5013983;28;20443;-82
2022/08/08 09:02:34;;;;;;;2.10;1.67;;;36.00;54.20;;;;;;5016149;28;20529;-85
2022/08/08 09:05:07;;;;;;;1.30;1.20;;;36.90;53.00;;;;;;5020055;28;20461;-85
2022/08/08 09:07:59;;;;;;;4.40;1.70;;;35.60;52.40;;;;;;5012486;28;20440;-87
2022/08/08 09:10:44;;;;;;;3.57;2.27;;;36.10;52.40;;;;;;5003355;28;20525;-83
2022/08/08 09:13:16;;;;;;;2.30;1.10;;;33.50;55.00;;;;;;5019926;28;20507;-85
2022/08/08 09:15:54;;;;;;;1.53;1.43;;;31.90;57.30;;;;;;5000176;28;20450;-84
2022/08/08 09:18:30;;;;;;;1.23;1.13;;;31.00;57.80;;;;;;5018987;28;20509;-84
2022/08/08 09:20:58;;;;;;;1.47;1.37;;;32.40;57.10;;;;;;5015112;28;20717;-83
2022/08/08 09:23:45;;;;;;;1.37;1.27;;;33.80;55.20;;;;;;5019136;28;20442;-82
2022/08/08 09:26:35;;;;;;;1.90;1.37;;;35.90;52.60;;;;;;5019368;28;20827;-82
2022/08/08 09:29:07;;;;;;;1.73;1.50;;;36.00;52.40;;;;;;5019374;28;20435;-82
2022/08/08 09:31:56;;;;;;;3.70;1.47;;;35.70;51.60;;;;;;5019771;28;20529;-83
2022/08/08 09:34:24;;;;;;;1.27;1.17;;;34.50;52.70;;;;;;5029137;28;20855;-83
2022/08/08 09:37:04;;;;;;;1.93;1.33;;;31.80;56.00;;;;;;5015672;28;20442;-82
2022/08/08 09:40:06;;;;;;;1.53;1.43;;;29.70;59.00;;;;;;5005446;28;20534;-81
2022/08/08 09:42:40;;;;;;;2.07;1.50;;;28.00;64.10;;;;;;5014608;28;20477;-83
2022/08/08 09:45:41;;;;;;;1.60;1.50;;;27.10;67.00;;;;;;5003501;28;20470;-83
2022/08/08 09:48:31;;;;;;;1.63;1.53;;;26.30;69.70;;;;;;5015945;28;20523;-82
2022/08/08 09:51:02;;;;;;;1.50;1.40;;;25.70;71.20;;;;;;5002833;28;20499;-83
2022/08/08 09:53:40;;;;;;;1.30;1.23;;;25.20;73.00;;;;;;5020033;28;20420;-85
2022/08/08 09:56:33;;;;;;;5.40;1.13;;;25.30;73.10;;;;;;5017135;28;20442;-82
2022/08/08 09:59:11;;;;;;;1.30;1.17;;;25.70;74.90;;;;;;5011170;28;20964;-83
2022/08/08 10:02:01;;;;;;;2.27;1.47;;;25.70;73.10;;;;;;5011566;28;20760;-82
2022/08/08 10:04:41;;;;;;;2.67;1.60;;;25.80;72.60;;;;;;5014086;28;20457;-84
2022/08/08 10:07:18;;;;;;;1.30;1.20;;;26.10;73.50;;;;;;5018740;28;20435;-81
2022/08/08 10:09:50;;;;;;;1.70;1.47;;;25.00;75.90;;;;;;5019576;28;20684;-82
2022/08/08 10:12:38;;;;;;;2.43;1.60;;;25.00;77.30;;;;;;5016866;28;21097;-84
2022/08/08 10:15:25;;;;;;;4.70;1.40;;;24.90;78.80;;;;;;5016556;28;20423;-80
2022/08/08 10:17:55;;;;;;;1.40;1.30;;;25.00;77.70;;;;;;5019203;28;20478;-81
2022/08/08 10:20:49;;;;;;;1.70;1.10;;;25.10;77.90;;;;;;5018925;28;20512;-82
2022/08/08 10:23:44;;;;;;;1.40;1.10;;;24.90;77.70;;;;;;5019540;28;20600;-81
2022/08/08 10:26:30;;;;;;;1.30;1.20;;;25.10;77.80;;;;;;5004019;28;21041;-82
2022/08/08 10:29:22;;;;;;;1.10;1.10;;;25.20;78.80;;;;;;5017841;28;20471;-82
2022/08/08 10:34:58;;;;;;;1.33;1.23;;;25.40;77.70;;;;;;5018785;28;20495;-84
2022/08/08 10:37:30;;;;;;;1.67;1.50;;;25.60;76.20;;;;;;5012277;28;20460;-82
2022/08/08 10:40:13;;;;;;;1.13;1.10;;;25.50;77.10;;;;;;5021794;28;20492;-82
2022/08/08 10:42:45;;;;;;;1.77;1.37;;;25.40;76.80;;;;;;5022341;28;20502;-85
2022/08/08 10:45:21;;;;;;;2.20;1.30;;;25.70;76.10;;;;;;5024651;28;20650;-83
2022/08/08 10:47:59;;;;;;;2.20;1.70;;;25.90;76.30;;;;;;5017032;28;20819;-85
2022/08/08 10:50:34;;;;;;;1.40;1.27;;;26.40;77.10;;;;;;5024915;28;20426;-83
2022/08/08 10:53:07;;;;;;;3.03;1.00;;;26.40;76.30;;;;;;5021872;28;20467;-84
2022/08/08 10:55:39;;;;;;;0.90;0.90;;;26.30;76.40;;;;;;5025743;28;20813;-84
2022/08/08 10:58:12;;;;;;;2.60;1.33;;;26.20;76.40;;;;;;5023032;28;20489;-83
2022/08/08 11:00:44;;;;;;;2.23;1.43;;;26.20;75.80;;;;;;5023262;28;20447;-85
2022/08/08 11:03:27;;;;;;;2.60;1.23;;;26.30;74.90;;;;;;5028061;28;20442;-84
2022/08/08 11:06:15;;;;;;;2.73;1.77;;;26.50;74.20;;;;;;5023941;28;20438;-82
2022/08/08 11:08:42;;;;;;;1.50;1.40;;;26.30;74.70;;;;;;5029162;28;20408;-79
2022/08/08 11:11:19;;;;;;;1.30;1.20;;;25.50;76.40;;;;;;5015392;28;20454;-79
2022/08/08 11:14:07;;;;;;;1.17;1.07;;;24.70;78.30;;;;;;5029480;28;20449;-79
2022/08/08 11:16:45;;;;;;;1.80;1.37;;;24.60;80.10;;;;;;5036501;28;20461;-82
2022/08/08 11:19:13;;;;;;;1.37;1.27;;;24.40;80.80;;;;;;5037697;28;20436;-81
2022/08/08 11:21:44;;;;;;;1.60;1.50;;;24.40;82.40;;;;;;5038208;28;20446;-82
2022/08/08 11:24:26;;;;;;;1.87;1.30;;;24.60;82.40;;;;;;5022933;28;20441;-85
2022/08/08 11:27:01;;;;;;;1.77;1.63;;;24.30;81.00;;;;;;5023837;28;20432;-85
2022/08/08 11:29:47;;;;;;;2.30;1.47;;;24.40;81.90;;;;;;5015970;28;20441;-82
2022/08/08 11:32:40;;;;;;;1.37;1.27;;;24.60;82.00;;;;;;5035658;28;20921;-81
2022/08/08 11:35:13;;;;;;;2.47;1.20;;;24.60;79.90;;;;;;5037282;28;20404;-83
2022/08/08 11:38:01;;;;;;;2.93;1.10;;;24.70;80.60;;;;;;5036139;28;20437;-86
2022/08/08 11:40:54;;;;;;;2.43;1.20;;;25.40;79.20;;;;;;5022639;28;20476;-82
2022/08/08 11:43:27;;;;;;;1.40;1.30;;;25.70;77.40;;;;;;5023402;28;20443;-84
2022/08/08 11:46:08;;;;;;;1.00;1.00;;;25.10;77.30;;;;;;5026282;28;20470;-85
2022/08/08 11:48:44;;;;;;;1.40;1.30;;;25.00;78.30;;;;;;5038671;28;20435;-80
2022/08/08 11:51:15;;;;;;;1.50;1.40;;;25.10;79.70;;;;;;5027918;28;20608;-83
2022/08/08 11:54:02;;;;;;;2.97;1.83;;;24.90;78.50;;;;;;5020636;28;20423;-81
2022/08/08 11:56:52;;;;;;;1.37;1.27;;;25.00;78.40;;;;;;5023881;28;20425;-80
2022/08/08 11:59:31;;;;;;;2.13;1.20;;;25.20;79.60;;;;;;5025326;28;20472;-81
2022/08/08 12:02:19;;;;;;;1.70;1.60;;;25.10;78.50;;;;;;5037970;28;20401;-83
2022/08/08 12:05:10;;;;;;;2.50;1.77;;;24.80;79.10;;;;;;5023276;28;20418;-83
2022/08/08 12:07:44;;;;;;;1.40;1.10;;;24.90;79.10;;;;;;5021876;28;20413;-82
2022/08/08 12:10:14;;;;;;;1.30;1.20;;;24.90;80.00;;;;;;5021053;28;20451;-86
2022/08/08 12:12:48;;;;;;;2.10;1.40;;;24.80;78.40;;;;;;5008735;28;20564;-85
2022/08/08 12:15:35;;;;;;;1.87;1.30;;;24.70;80.50;;;;;;5027689;28;20449;-84
2022/08/08 12:18:20;;;;;;;1.70;1.50;;;24.60;80.00;;;;;;4999233;28;20453;-85
2022/08/08 12:20:52;;;;;;;1.93;1.73;;;24.80;80.40;;;;;;5015555;28;20442;-85
2022/08/08 12:23:30;;;;;;;2.30;1.33;;;25.00;79.20;;;;;;5025032;28;20457;-83
2022/08/08 12:26:19;;;;;;;3.00;1.80;;;24.90;80.00;;;;;;5000980;28;20404;-82
2022/08/08 12:29:22;;;;;;;2.93;1.13;;;24.90;80.00;;;;;;5012727;28;20429;-81
2022/08/08 12:32:10;;;;;;;2.13;1.50;;;25.10;81.50;;;;;;5007269;28;20493;-80
2022/08/08 12:34:50;;;;;;;1.83;1.17;;;25.10;79.80;;;;;;5020508;28;20440;-81
2022/08/08 12:37:25;;;;;;;2.03;1.80;;;25.30;80.10;;;;;;5019091;28;20453;-82
2022/08/08 12:40:17;;;;;;;3.20;1.50;;;25.40;78.90;;;;;;5011151;28;20464;-82
2022/08/08 12:42:50;;;;;;;2.30;1.20;;;25.20;80.10;;;;;;5010403;28;20608;-83
2022/08/08 12:45:17;;;;;;;1.47;1.37;;;24.80;80.10;;;;;;5019932;28;20477;-84
2022/08/08 12:48:07;;;;;;;2.00;1.40;;;24.50;81.20;;;;;;5013431;28;20442;-83
2022/08/08 12:50:56;;;;;;;1.40;1.30;;;24.30;82.00;;;;;;5018844;28;20447;-84
2022/08/08 12:53:31;;;;;;;2.60;1.20;;;24.40;82.10;;;;;;5018535;28;20427;-84
2022/08/08 12:56:09;;;;;;;3.43;2.10;;;24.60;81.30;;;;;;5018265;28;20480;-84
2022/08/08 12:58:50;;;;;;;1.93;1.53;;;24.60;80.60;;;;;;5009889;28;20454;-83
2022/08/08 13:01:31;;;;;;;1.30;1.20;;;24.60;81.10;;;;;;4994191;28;20844;-82
2022/08/08 13:04:18;;;;;;;1.50;1.40;;;24.70;81.20;;;;;;5014678;28;20476;-82
2022/08/08 13:06:56;;;;;;;1.27;1.20;;;24.90;80.90;;;;;;5014103;28;20430;-86
2022/08/08 13:09:46;;;;;;;1.27;1.17;;;25.00;79.40;;;;;;5009044;28;20430;-82
2022/08/08 13:12:38;;;;;;;1.83;1.70;;;25.20;79.00;;;;;;5019356;28;20424;-82
2022/08/08 13:15:15;;;;;;;3.60;2.43;;;25.20;79.10;;;;;;5015365;28;20414;-82
2022/08/08 13:17:45;;;;;;;1.77;1.50;;;25.50;79.90;;;;;;5018557;28;20457;-81
2022/08/08 13:20:32;;;;;;;1.40;1.30;;;25.50;78.70;;;;;;5009863;28;20431;-83
2022/08/08 13:23:00;;;;;;;2.07;1.60;;;25.30;79.70;;;;;;5009344;28;20472;-82
2022/08/08 13:25:47;;;;;;;1.60;1.50;;;25.00;79.10;;;;;;5010701;28;20522;-81
2022/08/08 13:28:29;;;;;;;2.00;1.50;;;24.80;79.40;;;;;;5015290;28;20450;-85
2022/08/08 13:31:02;;;;;;;1.30;1.20;;;24.90;77.50;;;;;;5013379;28;20485;-84
2022/08/08 13:33:31;;;;;;;1.40;1.30;;;25.00;77.80;;;;;;4993723;28;20430;-84
2022/08/08 13:36:09;;;;;;;1.30;1.20;;;25.00;77.70;;;;;;5000093;28;20760;-84
2022/08/08 13:38:37;;;;;;;2.27;1.67;;;25.10;77.70;;;;;;5027345;28;20460;-84
2022/08/08 13:41:09;;;;;;;1.90;1.80;;;25.10;76.40;;;;;;5018698;28;20413;-82
2022/08/08 13:43:45;;;;;;;3.13;1.90;;;24.90;77.50;;;;;;5007411;28;20436;-84
2022/08/08 13:46:15;;;;;;;2.23;2.07;;;24.70;77.40;;;;;;5025019;28;20425;-81
2022/08/08 13:48:55;;;;;;;1.97;1.50;;;24.70;78.80;;;;;;5022169;28;20492;-83
2022/08/08 13:51:59;;;;;;;1.77;1.67;;;24.80;77.90;;;;;;5022679;28;20441;-83
2022/08/08 13:54:28;;;;;;;2.00;1.90;;;25.30;76.80;;;;;;5014009;28;20452;-81
2022/08/08 13:57:27;;;;;;;1.90;1.80;;;25.50;76.60;;;;;;5018312;28;20447;-82
2022/08/08 14:00:20;;;;;;;2.30;2.17;;;25.30;77.40;;;;;;5015516;28;20585;-83
2022/08/08 14:02:59;;;;;;;3.80;1.80;;;25.30;78.60;;;;;;5020663;28;20463;-82
2022/08/08 14:05:28;;;;;;;2.90;2.10;;;25.20;78.50;;;;;;5020478;28;20775;-80
2022/08/08 14:08:03;;;;;;;2.20;2.10;;;24.90;77.70;;;;;;5011409;28;20465;-81
2022/08/08 14:10:50;;;;;;;3.13;2.90;;;24.60;79.00;;;;;;5017801;28;20410;-81
2022/08/08 14:13:20;;;;;;;2.50;2.27;;;24.50;80.40;;;;;;5021803;28;20434;-83